Terminal Aerodrome Forecast
Issued by NWS Cleveland, OH

Home | Current Version | Previous Version | Text Only | Print | Product List | Glossary Off
Versions: 1 2 3 4 5 6 7 8 9 10 11 12 13 14 15 16 17 18 19 20

000
FTUS41 KCLE 241734
TAFMFD
TAF
KMFD 241734Z 2418/2518 26010KT 5SM -SHRA VCTS OVC035CB
      TEMPO 2420/2423 VRB20G30KT 1 1/2SM -TSRA OVC020CB
     FM250000 18005KT P6SM SCT040 BKN100
     FM251100 22006KT P6SM VCTS BKN035CB OVC080
     FM251500 26010KT P6SM SCT035 BKN100=

USA.gov is the U.S. government's official web portal to all federal, state and local government web resources and services.